Time;durP1;ratioP1;P1;durP2;ratioP2;P2;SDS_P1;SDS_P2;PMS_P1;PMS_P2;Temp;Humidity;BMP_temperature;BMP_pressure;BME280_temperature;BME280_humidity;BME280_pressure;Samples;Min_cycle;Max_cycle;Signal;HPM_P1;HPM_P2
2023/09/05 00:00:10;;;;;;;7.07;4.47;;;16.60;99.90;;;;;;5134606;27;20047;-41
2023/09/05 00:02:40;;;;;;;6.60;3.80;;;16.50;99.90;;;;;;5135062;27;20045;-41
2023/09/05 00:05:11;;;;;;;6.30;3.78;;;16.60;99.90;;;;;;5134797;27;20071;-41
2023/09/05 00:07:40;;;;;;;8.77;3.85;;;16.50;99.90;;;;;;5135028;27;20043;-41
2023/09/05 00:10:10;;;;;;;7.43;4.05;;;16.50;99.90;;;;;;5134350;27;20107;-41
2023/09/05 00:12:40;;;;;;;7.57;4.25;;;16.40;99.90;;;;;;5134748;27;20043;-41
2023/09/05 00:15:15;;;;;;;6.60;3.97;;;16.40;99.90;;;;;;5116557;27;20503;-41
2023/09/05 00:17:42;;;;;;;6.78;3.72;;;16.30;99.90;;;;;;5134930;27;20071;-41
2023/09/05 00:20:09;;;;;;;8.27;4.80;;;16.20;99.90;;;;;;5134314;27;20114;-41
2023/09/05 00:22:35;;;;;;;7.80;5.05;;;16.20;99.90;;;;;;5134149;27;20043;-41
2023/09/05 00:25:01;;;;;;;7.68;3.90;;;16.20;99.90;;;;;;5134278;28;20500;-41
2023/09/05 00:27:27;;;;;;;5.88;3.78;;;16.10;99.90;;;;;;5134322;28;20400;-41
2023/09/05 00:29:53;;;;;;;8.02;4.20;;;16.10;99.90;;;;;;5116981;28;20053;-41
2023/09/05 00:32:19;;;;;;;6.65;4.15;;;16.00;99.90;;;;;;5134691;28;20082;-41
2023/09/05 00:34:47;;;;;;;;;;;16.00;99.90;;;;;;5134798;28;20043;-41
2023/09/05 00:37:21;;;;;;;7.40;4.57;;;16.00;99.90;;;;;;5134310;28;20014;-41
2023/09/05 00:39:47;;;;;;;8.63;5.00;;;16.00;99.90;;;;;;5134418;28;20551;-41
2023/09/05 00:42:14;;;;;;;7.65;4.15;;;16.00;99.90;;;;;;5134601;28;20043;-41
2023/09/05 00:44:41;;;;;;;7.53;4.55;;;16.00;99.90;;;;;;5134475;28;20043;-41
2023/09/05 00:47:07;;;;;;;8.40;4.85;;;16.00;99.90;;;;;;5134264;28;20046;-41
2023/09/05 00:49:39;;;;;;;10.35;4.75;;;15.90;99.90;;;;;;5134200;28;20043;-41
2023/09/05 00:52:06;;;;;;;8.38;4.60;;;15.90;99.90;;;;;;5134150;28;20054;-41
2023/09/05 00:54:33;;;;;;;7.47;4.35;;;15.90;99.90;;;;;;5134285;28;20391;-41
2023/09/05 00:57:00;;;;;;;7.47;4.53;;;15.90;99.90;;;;;;5134563;28;20050;-41
2023/09/05 00:59:26;;;;;;;6.78;4.35;;;15.80;99.90;;;;;;5134459;28;20043;-41
2023/09/05 01:01:54;;;;;;;6.97;4.05;;;15.80;99.90;;;;;;5134099;28;20189;-41
2023/09/05 01:04:19;;;;;;;7.18;3.83;;;15.70;99.90;;;;;;5133964;28;20502;-41
2023/09/05 01:07:03;;;;;;;7.18;4.15;;;15.70;99.90;;;;;;5134103;28;20043;-41
2023/09/05 01:09:36;;;;;;;7.50;4.40;;;15.70;99.90;;;;;;5133935;28;20544;-41
2023/09/05 01:12:02;;;;;;;7.38;4.03;;;15.70;99.90;;;;;;5134077;28;20043;-41
2023/09/05 01:14:28;;;;;;;6.18;3.90;;;15.70;99.90;;;;;;5134125;28;20392;-41
2023/09/05 01:17:01;;;;;;;8.45;4.80;;;15.70;99.90;;;;;;5098969;28;20047;-41
2023/09/05 01:19:34;;;;;;;7.75;4.30;;;15.70;99.90;;;;;;5134198;28;20125;-41
2023/09/05 01:22:12;;;;;;;6.45;4.18;;;15.70;99.90;;;;;;5134206;28;20110;-41
2023/09/05 01:24:39;;;;;;;7.68;4.55;;;15.70;99.90;;;;;;5133941;28;20047;-40
2023/09/05 01:27:05;;;;;;;7.78;4.88;;;15.70;99.90;;;;;;5133990;28;20050;-41
2023/09/05 01:29:35;;;;;;;8.95;4.82;;;15.70;99.90;;;;;;5133849;28;20043;-41
2023/09/05 01:32:05;;;;;;;6.63;3.97;;;15.60;99.90;;;;;;5134770;27;20039;-41
2023/09/05 01:34:31;;;;;;;6.45;4.03;;;15.60;99.90;;;;;;5137642;27;20395;-41
2023/09/05 01:36:57;;;;;;;7.53;4.53;;;15.70;99.90;;;;;;5137610;27;20395;-41
2023/09/05 01:39:23;;;;;;;7.03;4.18;;;15.60;99.90;;;;;;5137630;27;20486;-41
2023/09/05 01:41:49;;;;;;;7.60;4.80;;;15.60;99.90;;;;;;5137436;27;20047;-41
2023/09/05 01:44:15;;;;;;;8.68;4.95;;;15.60;99.90;;;;;;5102164;27;20127;-41
2023/09/05 01:46:41;;;;;;;9.63;5.22;;;15.60;99.90;;;;;;5137399;27;20043;-41
2023/09/05 01:49:06;;;;;;;8.88;4.30;;;15.60;99.90;;;;;;5119052;27;20050;-41
2023/09/05 01:51:32;;;;;;;8.75;5.40;;;15.60;99.90;;;;;;5137340;27;20130;-41
2023/09/05 01:53:58;;;;;;;9.07;4.70;;;15.60;99.90;;;;;;5137229;27;20082;-41
2023/09/05 01:56:23;;;;;;;7.05;3.47;;;15.60;99.90;;;;;;5137128;27;20107;-41
2023/09/05 01:58:49;;;;;;;5.37;2.90;;;15.50;99.90;;;;;;5136916;27;20039;-41
2023/09/05 02:01:15;;;;;;;6.55;3.47;;;15.50;99.90;;;;;;5137101;27;20285;-41
2023/09/05 02:03:40;;;;;;;8.00;4.55;;;15.50;99.90;;;;;;5137374;27;20078;-41
2023/09/05 02:06:06;;;;;;;11.15;5.70;;;15.50;99.90;;;;;;5136952;27;20059;-41
2023/09/05 02:08:36;;;;;;;9.43;5.30;;;15.50;99.90;;;;;;5136872;27;20070;-41
2023/09/05 02:11:01;;;;;;;11.57;5.65;;;15.50;99.90;;;;;;5136808;27;20059;-41
2023/09/05 02:13:29;;;;;;;9.05;5.85;;;15.40;99.90;;;;;;5118493;27;20054;-41
2023/09/05 02:15:54;;;;;;;10.82;6.57;;;15.40;99.90;;;;;;5136801;27;20043;-41
2023/09/05 02:18:20;;;;;;;8.50;4.90;;;15.40;99.90;;;;;;5118709;27;20058;-41
2023/09/05 02:20:46;;;;;;;10.73;5.55;;;15.40;99.90;;;;;;5136847;27;20050;-41
2023/09/05 02:23:12;;;;;;;9.38;5.50;;;15.40;99.90;;;;;;5136785;27;20069;-41
2023/09/05 02:25:38;;;;;;;9.82;5.32;;;15.30;99.90;;;;;;5136440;27;20468;-41
2023/09/05 02:28:04;;;;;;;8.98;5.40;;;15.30;99.90;;;;;;5136480;27;20047;-41
2023/09/05 02:30:30;;;;;;;8.65;5.18;;;15.30;99.90;;;;;;5136422;27;20491;-41
2023/09/05 02:32:56;;;;;;;9.15;5.57;;;15.20;99.90;;;;;;5136903;27;20088;-41
2023/09/05 02:35:27;;;;;;;10.05;4.85;;;15.20;99.90;;;;;;5136473;27;20131;-41
2023/09/05 02:37:54;;;;;;;9.43;5.30;;;15.20;99.90;;;;;;5136453;27;20043;-41
2023/09/05 02:40:20;;;;;;;8.45;4.47;;;15.20;99.90;;;;;;5136353;27;20055;-41
2023/09/05 02:42:46;;;;;;;7.93;4.95;;;15.20;99.90;;;;;;5136225;27;20042;-41
2023/09/05 02:45:12;;;;;;;7.78;5.07;;;15.10;99.90;;;;;;5135171;27;20047;-41
2023/09/05 02:47:38;;;;;;;7.75;4.72;;;15.10;99.90;;;;;;5136306;27;20043;-41
2023/09/05 02:50:04;;;;;;;8.77;5.20;;;15.10;99.90;;;;;;5136333;27;20043;-41
2023/09/05 02:52:33;;;;;;;9.13;4.88;;;15.10;99.90;;;;;;5136077;27;20092;-41
2023/09/05 02:54:58;;;;;;;8.25;5.22;;;15.10;99.90;;;;;;5136034;27;20035;-41
2023/09/05 02:57:24;;;;;;;9.05;5.03;;;15.10;99.90;;;;;;5135996;27;20045;-41
2023/09/05 02:59:53;;;;;;;8.77;5.47;;;15.10;99.90;;;;;;5135983;27;20049;-41
2023/09/05 03:02:21;;;;;;;7.82;4.57;;;15.10;99.90;;;;;;5117548;27;20051;-40
2023/09/05 03:04:51;;;;;;;9.02;5.25;;;15.00;99.90;;;;;;5135754;27;20484;-41
2023/09/05 03:07:17;;;;;;;9.88;5.13;;;15.00;99.90;;;;;;5135834;27;20095;-41
2023/09/05 03:09:43;;;;;;;;;;;15.00;99.90;;;;;;5135875;27;20062;-40
2023/09/05 03:12:09;;;;;;;9.55;5.15;;;15.00;99.90;;;;;;5135711;27;19919;-41
2023/09/05 03:14:34;;;;;;;7.93;5.17;;;15.00;99.90;;;;;;5135733;27;20066;-41
2023/09/05 03:17:02;;;;;;;8.57;5.37;;;15.00;99.90;;;;;;5135655;27;20277;-40
2023/09/05 03:19:27;;;;;;;8.48;4.95;;;15.00;99.90;;;;;;5135526;27;20453;-41
2023/09/05 03:21:53;;;;;;;8.15;5.63;;;14.90;99.90;;;;;;5135594;27;20039;-41
2023/09/05 03:24:21;;;;;;;9.20;5.10;;;14.80;99.90;;;;;;5135374;27;20515;-41
2023/09/05 03:26:47;;;;;;;9.95;5.20;;;14.80;99.90;;;;;;5135448;27;20051;-41
2023/09/05 03:29:13;;;;;;;9.43;5.70;;;14.80;99.90;;;;;;5135422;27;20122;-41
2023/09/05 03:31:40;;;;;;;9.60;5.30;;;14.80;99.90;;;;;;5135597;27;20538;-41
2023/09/05 03:34:06;;;;;;;8.25;5.28;;;14.80;99.90;;;;;;5117001;27;20078;-41
2023/09/05 03:36:32;;;;;;;9.00;4.88;;;14.80;99.90;;;;;;5135264;27;20089;-41
2023/09/05 03:38:58;;;;;;;;;;;14.70;99.90;;;;;;5117508;27;20050;-41
2023/09/05 03:41:24;;;;;;;7.25;4.75;;;14.70;99.90;;;;;;5135223;27;20283;-40
2023/09/05 03:43:50;;;;;;;9.07;5.60;;;14.70;99.90;;;;;;5135068;27;20039;-41
2023/09/05 03:46:15;;;;;;;9.57;5.47;;;14.60;99.90;;;;;;5116886;27;20050;-41
2023/09/05 03:48:41;;;;;;;8.67;5.53;;;14.60;99.90;;;;;;5135152;27;20273;-40
2023/09/05 03:51:07;;;;;;;8.18;5.20;;;14.60;99.90;;;;;;5116680;27;20103;-40
2023/09/05 03:53:33;;;;;;;8.35;5.18;;;14.60;99.90;;;;;;5134768;27;20047;-40
2023/09/05 03:55:59;;;;;;;8.50;5.32;;;14.60;99.90;;;;;;5135220;27;20039;-41
2023/09/05 03:58:25;;;;;;;8.55;5.43;;;14.60;99.90;;;;;;5134861;27;20506;-41
2023/09/05 04:00:51;;;;;;;11.23;5.47;;;14.60;99.90;;;;;;5134981;27;20070;-40
2023/09/05 04:03:16;;;;;;;9.18;5.03;;;14.50;99.90;;;;;;5134617;27;20396;-41
2023/09/05 04:05:42;;;;;;;9.37;5.17;;;14.50;99.90;;;;;;5134685;27;20046;-41
2023/09/05 04:08:09;;;;;;;9.63;5.57;;;14.60;99.90;;;;;;5116633;27;20035;-41
2023/09/05 04:10:35;;;;;;;7.35;4.82;;;14.60;99.90;;;;;;5134867;27;20387;-41
2023/09/05 04:13:01;;;;;;;8.70;5.38;;;14.60;99.90;;;;;;5116889;27;20078;-41
2023/09/05 04:15:27;;;;;;;8.10;5.18;;;14.60;99.90;;;;;;5116412;27;20052;-41
2023/09/05 04:17:52;;;;;;;7.95;5.05;;;14.60;99.90;;;;;;5134483;27;20051;-41
2023/09/05 04:20:18;;;;;;;9.60;5.33;;;14.70;99.90;;;;;;5134716;27;20043;-40
2023/09/05 04:22:44;;;;;;;9.07;5.32;;;14.70;99.90;;;;;;5134419;27;20035;-41
2023/09/05 04:25:10;;;;;;;8.45;5.00;;;14.70;99.90;;;;;;5134556;27;20047;-41
2023/09/05 04:27:36;;;;;;;10.17;5.83;;;14.70;99.90;;;;;;5116612;28;20039;-41
2023/09/05 04:30:03;;;;;;;9.13;5.47;;;14.70;99.90;;;;;;5134614;28;20434;-41
2023/09/05 04:32:30;;;;;;;10.07;5.38;;;14.70;99.90;;;;;;5134638;28;20047;-40
2023/09/05 04:35:01;;;;;;;9.15;5.45;;;14.70;99.90;;;;;;5134449;28;20047;-41
2023/09/05 04:37:27;;;;;;;9.57;5.20;;;14.60;99.90;;;;;;5134378;28;20047;-41
2023/09/05 04:39:54;;;;;;;8.77;4.95;;;14.60;99.90;;;;;;5134457;28;20047;-41
2023/09/05 04:42:20;;;;;;;10.13;5.13;;;14.50;99.90;;;;;;5134459;28;20096;-40
2023/09/05 04:44:46;;;;;;;;;;;14.50;99.90;;;;;;5134901;28;20047;-41
2023/09/05 04:47:25;;;;;;;9.02;5.13;;;14.40;99.90;;;;;;5134497;28;20367;-41
2023/09/05 04:49:52;;;;;;;10.05;5.75;;;14.40;99.90;;;;;;5134341;28;20107;-41
2023/09/05 04:52:19;;;;;;;8.68;5.22;;;14.30;99.90;;;;;;5134494;28;20422;-41
2023/09/05 04:54:48;;;;;;;8.60;5.18;;;14.30;99.90;;;;;;5134181;28;20043;-41
2023/09/05 04:57:14;;;;;;;9.00;5.53;;;14.30;99.90;;;;;;5134333;28;20039;-41
2023/09/05 04:59:43;;;;;;;9.40;6.07;;;14.20;99.90;;;;;;5134203;28;20512;-41
2023/09/05 05:02:10;;;;;;;9.90;5.40;;;14.20;99.90;;;;;;5134316;28;20043;-41
2023/09/05 05:04:36;;;;;;;;;;;14.20;99.90;;;;;;5134483;28;20083;-40
2023/09/05 05:07:01;;;;;;;9.10;5.78;;;14.20;99.90;;;;;;5116887;27;19981;-41
2023/09/05 05:09:27;;;;;;;8.93;5.67;;;14.10;99.90;;;;;;5137943;27;20062;-41
2023/09/05 05:11:53;;;;;;;9.27;5.55;;;14.20;99.90;;;;;;5138120;27;20050;-41
2023/09/05 05:14:18;;;;;;;10.57;6.70;;;14.20;99.90;;;;;;5138188;27;20064;-41
2023/09/05 05:16:44;;;;;;;9.60;5.73;;;14.20;99.90;;;;;;5137977;27;20404;-41
2023/09/05 05:19:10;;;;;;;11.20;6.03;;;14.20;99.90;;;;;;5137948;27;20408;-41
2023/09/05 05:21:38;;;;;;;9.50;5.95;;;14.20;99.90;;;;;;5119525;27;20399;-42
2023/09/05 05:24:07;;;;;;;10.90;5.97;;;14.20;99.90;;;;;;5119622;27;20082;-40
2023/09/05 05:26:33;;;;;;;11.50;6.00;;;14.20;99.90;;;;;;5119545;27;20386;-40
2023/09/05 05:28:59;;;;;;;9.13;5.43;;;14.30;99.90;;;;;;5137751;27;20126;-41
2023/09/05 05:31:26;;;;;;;10.93;5.85;;;14.30;99.90;;;;;;5137603;27;20043;-41
2023/09/05 05:33:52;;;;;;;10.25;6.40;;;14.30;99.90;;;;;;5137664;27;20039;-41
2023/09/05 05:36:18;;;;;;;10.48;6.45;;;14.40;99.90;;;;;;5138031;27;20091;-41
2023/09/05 05:38:44;;;;;;;;;;;14.40;99.90;;;;;;5138006;27;20060;-40
2023/09/05 05:41:10;;;;;;;9.98;5.90;;;14.40;99.90;;;;;;5137556;27;19919;-40
2023/09/05 05:43:36;;;;;;;10.43;6.15;;;14.50;99.90;;;;;;5137323;27;20054;-40
2023/09/05 05:46:02;;;;;;;9.48;5.80;;;14.50;99.90;;;;;;5137391;27;20092;-40
2023/09/05 05:48:28;;;;;;;9.00;5.70;;;14.50;99.90;;;;;;5137428;27;20502;-41
2023/09/05 05:50:55;;;;;;;9.13;6.13;;;14.50;99.90;;;;;;5119289;27;20039;-41
2023/09/05 05:53:22;;;;;;;9.65;6.22;;;14.60;99.90;;;;;;5137585;27;20395;-40
2023/09/05 05:55:47;;;;;;;10.10;6.25;;;14.60;99.90;;;;;;5137318;27;20043;-40
2023/09/05 05:58:14;;;;;;;9.68;5.63;;;14.70;99.90;;;;;;5137218;27;20456;-40
2023/09/05 06:00:45;;;;;;;10.13;5.50;;;14.70;99.90;;;;;;5118828;27;20043;-41
2023/09/05 06:03:12;;;;;;;9.40;6.43;;;14.70;99.90;;;;;;5137385;27;20054;-41
2023/09/05 06:05:38;;;;;;;10.73;6.45;;;14.80;99.90;;;;;;5137583;27;20178;-41
2023/09/05 06:08:04;;;;;;;9.75;5.60;;;14.80;99.90;;;;;;5137447;27;20047;-41
2023/09/05 06:10:30;;;;;;;10.25;6.22;;;14.80;99.90;;;;;;5137094;27;20134;-41
2023/09/05 06:12:56;;;;;;;10.68;6.05;;;14.90;99.90;;;;;;5136891;27;20134;-40
2023/09/05 06:15:22;;;;;;;10.70;6.30;;;15.00;99.90;;;;;;5136692;27;20043;-41
2023/09/05 06:17:47;;;;;;;8.85;5.43;;;15.10;99.90;;;;;;5136793;27;20291;-41
2023/09/05 06:20:13;;;;;;;9.13;5.83;;;15.10;99.90;;;;;;5136828;27;20475;-41
2023/09/05 06:22:39;;;;;;;9.48;6.45;;;15.20;99.90;;;;;;5136833;27;20299;-41
2023/09/05 06:25:05;;;;;;;10.90;6.15;;;15.30;99.90;;;;;;5136690;27;20046;-40
2023/09/05 06:27:32;;;;;;;10.88;6.53;;;15.40;99.90;;;;;;5136837;27;20441;-41
2023/09/05 06:29:57;;;;;;;9.75;5.35;;;15.50;99.90;;;;;;5136636;27;20043;-41
2023/09/05 06:32:23;;;;;;;8.85;5.43;;;15.50;99.90;;;;;;5136566;27;20163;-41
2023/09/05 06:34:50;;;;;;;10.82;5.70;;;15.60;99.90;;;;;;5136629;27;20108;-41
2023/09/05 06:37:16;;;;;;;11.05;6.32;;;15.70;99.90;;;;;;5136499;27;20069;-41
2023/09/05 06:39:42;;;;;;;10.07;6.20;;;15.80;99.90;;;;;;5136575;27;20104;-41
2023/09/05 06:42:09;;;;;;;10.73;6.00;;;15.90;99.90;;;;;;5136089;27;20047;-41
2023/09/05 06:44:34;;;;;;;;;;;16.00;99.90;;;;;;5136356;27;20047;-41
2023/09/05 06:47:00;;;;;;;9.13;5.72;;;16.00;99.90;;;;;;5136327;27;20340;-41
2023/09/05 06:49:25;;;;;;;10.43;6.18;;;16.10;99.90;;;;;;5136293;27;20399;-41
2023/09/05 06:51:52;;;;;;;10.30;5.75;;;16.20;99.90;;;;;;5136268;27;20051;-41
2023/09/05 06:54:17;;;;;;;9.07;5.43;;;16.30;99.90;;;;;;5118008;27;20127;-41
2023/09/05 06:56:43;;;;;;;11.43;6.22;;;16.40;99.90;;;;;;5135993;27;20130;-41
2023/09/05 06:59:16;;;;;;;11.77;6.68;;;16.60;99.90;;;;;;5117526;27;20042;-41
2023/09/05 07:01:45;;;;;;;12.10;6.20;;;16.70;99.90;;;;;;5136260;27;20539;-41
2023/09/05 07:04:13;;;;;;;10.45;5.55;;;16.70;99.90;;;;;;5135893;27;20472;-41
2023/09/05 07:06:39;;;;;;;9.90;5.57;;;16.70;99.90;;;;;;5136030;27;20124;-41
2023/09/05 07:09:08;;;;;;;;;;;16.80;99.90;;;;;;5136003;27;20043;-41
2023/09/05 07:11:34;;;;;;;9.60;5.75;;;16.90;99.90;;;;;;5135535;27;19926;-41
2023/09/05 07:13:59;;;;;;;9.32;5.50;;;16.90;99.90;;;;;;5117466;27;20062;-41
2023/09/05 07:16:25;;;;;;;9.65;5.28;;;16.90;99.90;;;;;;5135713;27;20049;-41
2023/09/05 07:18:51;;;;;;;8.27;5.10;;;17.00;99.90;;;;;;5117501;27;20047;-41
2023/09/05 07:21:17;;;;;;;9.73;5.20;;;17.10;99.90;;;;;;5135655;27;20043;-41
2023/09/05 07:23:43;;;;;;;8.45;5.00;;;17.10;99.90;;;;;;5135580;27;20445;-41
2023/09/05 07:26:08;;;;;;;9.30;5.30;;;17.10;99.90;;;;;;5135545;27;20047;-41
2023/09/05 07:28:34;;;;;;;9.90;5.78;;;17.20;99.90;;;;;;5135463;27;20043;-41
2023/09/05 07:31:03;;;;;;;9.77;5.30;;;17.20;99.90;;;;;;5116644;27;20039;-41
2023/09/05 07:33:29;;;;;;;8.25;4.68;;;17.30;99.90;;;;;;5135404;27;20043;-41
2023/09/05 07:35:55;;;;;;;7.90;5.10;;;17.40;99.90;;;;;;5135264;27;20055;-41
2023/09/05 07:38:21;;;;;;;9.38;5.10;;;17.50;99.90;;;;;;5151416;27;20043;-41
2023/09/05 07:40:50;;;;;;;9.38;4.80;;;17.50;99.90;;;;;;5135119;27;20043;-41
2023/09/05 07:43:16;;;;;;;7.90;4.80;;;17.50;99.90;;;;;;5117133;27;20054;-41
2023/09/05 07:45:42;;;;;;;8.27;5.05;;;17.50;99.90;;;;;;5117012;27;20055;-41
2023/09/05 07:48:08;;;;;;;8.77;5.20;;;17.60;99.90;;;;;;5134973;27;20502;-41
2023/09/05 07:50:35;;;;;;;9.77;5.90;;;17.70;99.90;;;;;;5135078;27;20048;-41
2023/09/05 07:53:00;;;;;;;;;;;17.80;99.90;;;;;;5135275;27;20507;-41
2023/09/05 07:55:26;;;;;;;9.48;5.28;;;17.90;99.90;;;;;;5134871;27;19919;-41
2023/09/05 07:57:52;;;;;;;8.52;5.60;;;17.90;99.90;;;;;;5135176;27;20043;-41
2023/09/05 08:00:19;;;;;;;10.00;5.38;;;17.90;99.90;;;;;;5116858;27;20054;-41
2023/09/05 08:02:45;;;;;;;9.52;5.07;;;18.00;99.90;;;;;;5116848;27;20051;-41
2023/09/05 08:05:11;;;;;;;8.52;4.63;;;18.10;99.90;;;;;;5134663;27;20156;-41
2023/09/05 08:07:40;;;;;;;8.52;4.60;;;18.20;99.90;;;;;;5135033;27;20051;-41
2023/09/05 08:10:07;;;;;;;8.32;5.60;;;18.20;99.90;;;;;;5134572;27;20055;-41
2023/09/05 08:12:33;;;;;;;9.63;5.60;;;18.20;99.90;;;;;;5135013;27;20050;-42
2023/09/05 08:14:59;;;;;;;8.40;5.10;;;18.30;99.90;;;;;;5134685;27;20471;-41
2023/09/05 08:17:25;;;;;;;7.55;4.88;;;18.40;99.90;;;;;;5116346;27;20095;-41
2023/09/05 08:19:50;;;;;;;9.02;5.00;;;18.40;99.90;;;;;;5134653;27;20372;-41
2023/09/05 08:22:17;;;;;;;8.20;5.07;;;18.50;99.90;;;;;;5116336;27;20095;-42
2023/09/05 08:24:43;;;;;;;9.32;4.78;;;18.60;99.90;;;;;;5134554;27;20050;-41
2023/09/05 08:27:13;;;;;;;9.25;4.65;;;18.70;99.90;;;;;;5134675;28;20417;-41
2023/09/05 08:29:39;;;;;;;9.27;5.18;;;18.70;99.90;;;;;;5135220;28;20047;-41
2023/09/05 08:32:05;;;;;;;8.85;5.22;;;18.80;99.90;;;;;;5116453;28;20366;-41
2023/09/05 08:34:32;;;;;;;7.28;4.38;;;18.90;99.90;;;;;;5134437;28;20437;-41
2023/09/05 08:36:59;;;;;;;7.53;4.40;;;19.00;99.90;;;;;;5134251;28;20050;-41
2023/09/05 08:39:26;;;;;;;8.05;4.63;;;19.00;99.90;;;;;;5134372;28;20055;-41
2023/09/05 08:41:52;;;;;;;;;;;19.10;99.90;;;;;;5135416;27;20059;-42
2023/09/05 08:44:18;;;;;;;8.20;4.85;;;19.10;99.90;;;;;;5138770;27;19926;-41
2023/09/05 08:46:45;;;;;;;7.57;4.90;;;19.30;99.90;;;;;;5138629;27;20051;-41
2023/09/05 08:49:11;;;;;;;7.47;4.30;;;19.30;99.90;;;;;;5138580;27;20483;-41
2023/09/05 08:51:39;;;;;;;6.50;3.67;;;19.40;99.90;;;;;;5138579;27;20126;-41
2023/09/05 08:54:06;;;;;;;6.82;3.53;;;19.50;99.90;;;;;;5138441;27;20053;-41
2023/09/05 08:56:33;;;;;;;7.13;3.83;;;19.60;99.90;;;;;;5138470;27;20133;-41
2023/09/05 08:59:01;;;;;;;7.63;4.00;;;19.70;99.90;;;;;;5138428;27;20095;-41
2023/09/05 09:01:29;;;;;;;6.05;3.22;;;19.70;99.90;;;;;;5138344;27;20047;-41
2023/09/05 09:03:55;;;;;;;6.55;3.88;;;19.80;99.90;;;;;;5138333;27;20373;-41
2023/09/05 09:06:25;;;;;;;6.63;3.75;;;19.90;99.90;;;;;;5137890;27;20624;-41
2023/09/05 09:08:51;;;;;;;7.28;3.47;;;20.00;99.90;;;;;;5120072;27;20039;-41
2023/09/05 09:11:20;;;;;;;6.50;3.97;;;20.10;99.90;;;;;;5138158;27;20061;-41
2023/09/05 09:13:49;;;;;;;5.97;3.55;;;20.20;99.90;;;;;;5154552;27;20058;-41
2023/09/05 09:16:18;;;;;;;6.72;3.65;;;20.20;99.90;;;;;;5138211;27;20039;-41
2023/09/05 09:18:48;;;;;;;6.75;3.83;;;20.30;99.90;;;;;;5137988;27;20046;-41
2023/09/05 09:21:17;;;;;;;6.63;3.50;;;20.30;99.90;;;;;;5137731;27;20433;-41
2023/09/05 09:23:44;;;;;;;7.35;3.47;;;20.40;99.90;;;;;;5137874;27;20403;-41
2023/09/05 09:26:13;;;;;;;7.22;4.13;;;20.40;99.90;;;;;;5137903;27;20054;-42
2023/09/05 09:40:36;;;;;;;6.30;3.50;;;20.70;99.90;;;;;;6040644;23;20936;-44
2023/09/05 09:43:02;;;;;;;9.32;4.55;;;20.80;99.90;;;;;;4956289;28;1110261;-43
2023/09/05 09:45:32;;;;;;;7.25;3.83;;;20.90;99.90;;;;;;4996947;28;20058;-43
2023/09/05 09:48:00;;;;;;;6.63;3.55;;;20.90;99.90;;;;;;4996901;28;20054;-43
2023/09/05 09:50:26;;;;;;;5.45;3.00;;;21.00;99.90;;;;;;4997003;28;20093;-44
2023/09/05 09:52:57;;;;;;;5.35;2.42;;;21.10;99.90;;;;;;4996488;28;20050;-43
2023/09/05 09:55:26;;;;;;;5.70;2.38;;;21.20;99.90;;;;;;4996881;28;20050;-43
2023/09/05 09:58:01;;;;;;;4.53;2.33;;;21.30;99.90;;;;;;4997178;28;20054;-44
2023/09/05 10:00:28;;;;;;;5.38;2.83;;;21.30;99.90;;;;;;4997039;28;20161;-43
2023/09/05 10:02:55;;;;;;;6.03;3.22;;;21.40;99.90;;;;;;4996817;28;20042;-43
2023/09/05 10:05:24;;;;;;;5.78;3.20;;;21.50;99.90;;;;;;4996529;28;20061;-43
2023/09/05 10:07:52;;;;;;;5.70;2.85;;;21.50;99.90;;;;;;4996409;28;20054;-44
2023/09/05 10:10:19;;;;;;;5.13;2.83;;;21.70;99.90;;;;;;4996655;28;20042;-43
2023/09/05 10:12:45;;;;;;;;;;;21.70;99.90;;;;;;4996968;28;20050;-44
2023/09/05 10:15:15;;;;;;;7.00;3.58;;;21.80;99.90;;;;;;4996424;28;20444;-43
2023/09/05 10:17:45;;;;;;;4.80;2.33;;;22.00;99.90;;;;;;4996587;28;20057;-43
2023/09/05 10:20:18;;;;;;;5.18;2.40;;;22.10;99.90;;;;;;4996122;28;20054;-44
2023/09/05 10:22:44;;;;;;;5.22;2.20;;;22.20;99.90;;;;;;4996781;28;20057;-44
2023/09/05 10:25:15;;;;;;;3.70;1.95;;;22.30;99.90;;;;;;4978979;28;20133;-44
2023/09/05 10:27:42;;;;;;;4.43;2.05;;;22.40;99.90;;;;;;4996293;28;20137;-44
2023/09/05 10:30:10;;;;;;;5.55;2.65;;;22.50;99.90;;;;;;4996100;28;20046;-44
2023/09/05 10:32:37;;;;;;;5.43;2.35;;;22.60;99.90;;;;;;4995854;28;20056;-44
2023/09/05 10:35:03;;;;;;;3.92;1.60;;;22.70;99.90;;;;;;4995901;28;20042;-44
2023/09/05 10:37:34;;;;;;;4.50;2.17;;;22.90;99.90;;;;;;4996435;28;20073;-43
2023/09/05 10:40:10;;;;;;;3.47;1.50;;;23.00;99.90;;;;;;4996266;28;20054;-43
2023/09/05 10:42:51;;;;;;;3.03;1.60;;;23.10;99.90;;;;;;4995573;28;20054;-43
2023/09/05 10:45:21;;;;;;;4.57;1.33;;;23.20;99.90;;;;;;4995833;28;20050;-43
2023/09/05 10:47:49;;;;;;;2.88;1.08;;;23.40;99.90;;;;;;4995731;28;20529;-43
2023/09/05 10:50:22;;;;;;;4.80;1.77;;;23.50;99.90;;;;;;4995819;28;20090;-44
2023/09/05 10:53:11;;;;;;;3.33;1.00;;;23.70;99.90;;;;;;4995894;28;20052;-43
2023/09/05 10:55:46;;;;;;;2.97;1.20;;;23.80;99.90;;;;;;4995522;28;20487;-43
2023/09/05 10:58:38;;;;;;;2.95;1.20;;;23.90;99.90;;;;;;4995495;28;20479;-44
2023/09/05 11:01:32;;;;;;;2.13;1.00;;;24.10;99.90;;;;;;4978479;28;20140;-44
2023/09/05 11:04:07;;;;;;;3.30;1.23;;;24.20;99.90;;;;;;4995222;28;20047;-43
2023/09/05 11:06:37;;;;;;;2.53;1.23;;;24.40;99.90;;;;;;4994990;28;20054;-43
2023/09/05 11:09:06;;;;;;;3.30;1.02;;;24.60;99.90;;;;;;4995486;28;20081;-43
2023/09/05 11:11:43;;;;;;;2.30;0.93;;;24.70;99.90;;;;;;4995415;28;20051;-43
2023/09/05 11:14:08;;;;;;;2.95;1.20;;;24.80;99.90;;;;;;4995235;28;20081;-43
2023/09/05 11:16:47;;;;;;;;;;;25.00;99.90;;;;;;4995392;28;20096;-44
2023/09/05 11:19:42;;;;;;;2.88;1.10;;;25.00;99.90;;;;;;4995275;28;19922;-44
2023/09/05 11:22:11;;;;;;;4.60;1.30;;;25.20;99.90;;;;;;4995343;28;20130;-43
2023/09/05 11:24:46;;;;;;;3.33;1.08;;;25.30;99.90;;;;;;4977935;28;20050;-44
2023/09/05 11:27:16;;;;;;;3.08;1.17;;;25.50;99.90;;;;;;4995205;28;20482;-43
2023/09/05 11:29:45;;;;;;;1.98;0.82;;;25.50;99.90;;;;;;4995285;28;20050;-44
2023/09/05 11:32:12;;;;;;;3.50;1.27;;;25.70;99.90;;;;;;4995014;28;20057;-44
2023/09/05 11:34:43;;;;;;;2.40;1.00;;;25.80;99.90;;;;;;4977822;28;20050;-44
2023/09/05 11:37:09;;;;;;;1.83;0.90;;;25.80;99.90;;;;;;4994876;28;20050;-44
2023/09/05 11:39:34;;;;;;;;;;;25.90;99.90;;;;;;4995044;28;20042;-43
2023/09/05 11:42:00;;;;;;;2.80;1.17;;;26.10;99.90;;;;;;4990652;28;20027;-43
2023/09/05 11:44:32;;;;;;;;;;;26.20;99.90;;;;;;4995255;28;20185;-44
2023/09/05 11:46:59;;;;;;;2.00;0.82;;;26.20;99.90;;;;;;4994800;28;20378;-43
2023/09/05 11:49:25;;;;;;;2.75;1.00;;;26.30;99.90;;;;;;4994759;28;20050;-43
2023/09/05 11:51:50;;;;;;;;;;;26.40;99.90;;;;;;4995045;28;20050;-43
2023/09/05 11:54:16;;;;;;;1.70;0.70;;;26.50;99.90;;;;;;4994392;28;19922;-43
2023/09/05 11:56:42;;;;;;;1.95;0.80;;;26.60;99.90;;;;;;4994737;28;20101;-43
2023/09/05 11:59:07;;;;;;;2.15;0.90;;;26.60;99.90;;;;;;4977521;28;20046;-43
2023/09/05 12:01:33;;;;;;;;;;;26.70;99.90;;;;;;4994866;28;20042;-43
2023/09/05 12:04:03;;;;;;;2.58;1.05;;;26.80;99.90;;;;;;4994485;28;19992;-43
2023/09/05 12:06:33;;;;;;;3.75;1.48;;;26.90;99.90;;;;;;4994283;28;20495;-44
2023/09/05 12:08:59;;;;;;;3.22;1.40;;;26.90;99.90;;;;;;4994514;28;20054;-43
2023/09/05 12:11:25;;;;;;;3.20;1.50;;;27.10;99.90;;;;;;4994342;28;20052;-44
2023/09/05 12:13:56;;;;;;;3.55;1.83;;;27.10;99.90;;;;;;4977037;28;20137;-43
2023/09/05 12:16:22;;;;;;;2.90;1.60;;;27.20;99.90;;;;;;4994222;28;20049;-43
2023/09/05 12:18:48;;;;;;;3.90;1.67;;;27.20;99.90;;;;;;4994290;28;20054;-43
2023/09/05 12:21:14;;;;;;;4.07;1.70;;;27.30;99.90;;;;;;4993968;28;20046;-43
2023/09/05 12:23:40;;;;;;;2.13;1.15;;;27.30;99.90;;;;;;4994283;28;20053;-43
2023/09/05 12:26:06;;;;;;;3.90;1.52;;;27.40;99.90;;;;;;4994202;28;20515;-43
2023/09/05 12:28:32;;;;;;;4.10;1.67;;;27.50;99.90;;;;;;5009436;28;20050;-42
2023/09/05 12:31:14;;;;;;;4.57;2.00;;;27.60;99.90;;;;;;4994402;28;20415;-43
2023/09/05 12:33:40;;;;;;;4.07;1.52;;;27.60;99.90;;;;;;4994147;28;20042;-43
2023/09/05 12:36:06;;;;;;;3.90;1.50;;;27.60;99.90;;;;;;4994427;28;20050;-43
2023/09/05 12:38:32;;;;;;;4.22;1.80;;;27.70;99.90;;;;;;4994158;28;20061;-43
2023/09/05 12:40:58;;;;;;;3.28;1.60;;;27.70;99.90;;;;;;4976927;28;20550;-44
2023/09/05 12:43:26;;;;;;;3.35;1.40;;;27.70;99.90;;;;;;4994143;28;20046;-45
2023/09/05 12:45:52;;;;;;;2.88;1.45;;;27.80;99.90;;;;;;4993820;28;20057;-44
2023/09/05 12:48:18;;;;;;;2.75;1.70;;;27.80;99.90;;;;;;4993920;28;20046;-45
2023/09/05 12:50:48;;;;;;;3.60;1.40;;;27.90;99.90;;;;;;4994047;28;20050;-43
2023/09/05 12:53:14;;;;;;;3.15;1.58;;;27.90;99.90;;;;;;4993849;28;20403;-44
2023/09/05 12:55:41;;;;;;;3.42;1.40;;;27.90;99.90;;;;;;4994002;28;20054;-44
2023/09/05 12:58:07;;;;;;;4.47;1.95;;;27.90;99.90;;;;;;4976950;28;20073;-44
2023/09/05 13:00:34;;;;;;;3.42;1.55;;;27.90;99.90;;;;;;4993962;28;20479;-44
2023/09/05 13:03:06;;;;;;;2.50;1.10;;;28.00;99.90;;;;;;4993634;28;20051;-44